createdAt,value
2023-06-07T00:55:50.864Z,13.90
2023-06-07T00:58:18.781Z,13.99
2023-06-07T01:00:46.550Z,14.25
2023-06-07T01:03:15.311Z,14.25
2023-06-07T01:05:45.383Z,14.09
2023-06-07T01:08:13.243Z,14.26
2023-06-07T01:10:40.984Z,13.97
2023-06-07T01:13:10.683Z,14.25
2023-06-07T01:15:39.088Z,14.40
2023-06-07T01:18:11.254Z,13.98
2023-06-07T01:20:41.996Z,13.77
2023-06-07T01:23:10.410Z,13.46
2023-06-07T01:25:38.695Z,13.55
2023-06-07T01:28:07.043Z,13.69
2023-06-07T01:30:35.003Z,13.92
2023-06-07T01:33:05.033Z,13.01
2023-06-07T01:35:33.211Z,13.33
2023-06-07T01:38:01.158Z,13.85
2023-06-07T01:40:28.975Z,13.99
2023-06-07T01:42:56.720Z,14.04
2023-06-07T01:45:24.614Z,14.28
2023-06-07T01:47:52.502Z,14.38
2023-06-07T01:50:23.796Z,14.52
2023-06-07T01:52:51.668Z,14.48
2023-06-07T01:55:19.637Z,14.25
2023-06-07T01:58:25.051Z,14.36
2023-06-07T02:01:03.715Z,14.42
2023-06-07T02:03:52.691Z,14.46
2023-06-07T02:06:34.119Z,14.61
2023-06-07T02:22:45.904Z,15.05
2023-06-07T02:25:13.628Z,15.01
2023-06-07T02:27:41.391Z,15.10
2023-06-07T02:30:09.517Z,15.03
2023-06-07T02:32:39.870Z,15.08
2023-06-07T02:35:10.765Z,14.98
2023-06-07T02:37:38.877Z,14.73
2023-06-07T02:40:07.122Z,14.59
2023-06-07T02:42:34.888Z,14.61
2023-06-07T02:45:03.951Z,14.77
2023-06-07T02:47:31.820Z,14.85
2023-06-07T02:50:02.666Z,14.56
2023-06-07T02:52:32.201Z,14.35
2023-06-07T02:55:00.439Z,14.53
2023-06-07T02:57:28.188Z,14.70
2023-06-07T02:59:57.321Z,14.58
2023-06-07T03:02:34.591Z,14.38
2023-06-07T03:05:04.095Z,14.61
2023-06-07T03:07:33.670Z,14.76
2023-06-07T03:10:02.792Z,14.68
2023-06-07T03:12:30.902Z,14.84
2023-06-07T03:15:00.466Z,14.87
2023-06-07T03:17:30.227Z,14.78
2023-06-07T03:19:59.215Z,14.62
2023-06-07T03:22:30.060Z,14.86
2023-06-07T03:24:58.381Z,14.89
2023-06-07T03:27:29.042Z,14.97
2023-06-07T03:30:02.867Z,14.83
2023-06-07T03:32:35.879Z,14.90
2023-06-07T03:35:04.017Z,14.68
2023-06-07T03:37:31.980Z,14.83
2023-06-07T03:39:59.814Z,14.30
2023-06-07T03:42:28.056Z,14.53
2023-06-07T03:44:55.955Z,14.69
2023-06-07T03:47:24.578Z,14.54
2023-06-07T03:49:52.526Z,14.68
2023-06-07T03:52:20.811Z,14.77
2023-06-07T03:54:48.745Z,14.63
2023-06-07T03:57:16.818Z,14.65
2023-06-07T03:59:45.880Z,14.65
2023-06-07T04:02:14.435Z,14.66
2023-06-07T04:04:43.776Z,14.75
2023-06-07T04:07:11.565Z,15.17
2023-06-07T04:09:41.236Z,15.05
2023-06-07T04:12:09.126Z,15.09
2023-06-07T04:14:37.132Z,14.93
2023-06-07T04:17:05.286Z,15.30
2023-06-07T04:19:33.251Z,15.51
2023-06-07T04:22:05.629Z,15.68
2023-06-07T04:24:34.333Z,15.56
2023-06-07T04:27:03.012Z,15.60
2023-06-07T04:29:31.032Z,15.70
2023-06-07T04:31:59.585Z,15.80
2023-06-07T04:34:33.394Z,15.84
2023-06-07T04:37:05.189Z,15.94
2023-06-07T04:39:34.189Z,16.14
2023-06-07T04:42:04.548Z,16.27
2023-06-07T04:44:32.829Z,16.30
2023-06-07T04:47:13.068Z,16.39
2023-06-07T04:49:41.977Z,16.40
2023-06-07T04:52:09.898Z,16.48
2023-06-07T04:54:40.465Z,16.60
2023-06-07T04:57:10.102Z,16.75
2023-06-07T04:59:43.615Z,16.92
2023-06-07T05:02:14.649Z,17.03
2023-06-07T05:04:44.158Z,17.12
2023-06-07T05:07:15.101Z,17.26
2023-06-07T05:09:48.332Z,17.27
2023-06-07T05:12:18.964Z,17.15
2023-06-07T05:14:47.217Z,17.36
2023-06-07T05:17:20.336Z,17.48
2023-06-07T05:19:49.650Z,17.52
2023-06-07T05:22:18.178Z,17.48
2023-06-07T05:24:46.439Z,17.42
2023-06-07T05:27:15.746Z,17.55
2023-06-07T05:29:43.565Z,17.51
2023-06-07T05:32:11.592Z,17.55
2023-06-07T05:34:40.189Z,17.73
2023-06-07T05:37:09.023Z,17.67
2023-06-07T05:39:37.095Z,17.76
2023-06-07T05:42:06.413Z,17.69
2023-06-07T05:44:35.680Z,17.84
2023-06-07T05:47:03.762Z,18.10
2023-06-07T05:49:31.619Z,18.30
2023-06-07T05:51:59.604Z,18.12
2023-06-07T05:54:27.481Z,18.00
2023-06-07T05:56:55.240Z,18.16
2023-06-07T05:59:22.971Z,18.39
2023-06-07T06:01:50.832Z,18.46
2023-06-07T06:04:18.765Z,18.63
2023-06-07T06:06:46.579Z,18.46
2023-06-07T06:09:14.405Z,18.99
2023-06-07T06:11:42.203Z,19.16
2023-06-07T06:14:10.057Z,19.25
2023-06-07T06:16:37.873Z,19.37
2023-06-07T06:19:05.695Z,19.11
2023-06-07T06:21:33.484Z,19.22
2023-06-07T06:24:04.072Z,19.58
2023-06-07T06:26:31.987Z,19.75
2023-06-07T06:28:59.800Z,19.88
2023-06-07T06:31:27.726Z,19.66
2023-06-07T06:33:55.543Z,19.60
2023-06-07T06:36:23.320Z,19.39
2023-06-07T06:38:51.952Z,20.19
2023-06-07T06:41:19.760Z,20.20
2023-06-07T06:43:47.748Z,20.23
2023-06-07T06:46:18.069Z,19.85
2023-06-07T06:48:53.034Z,20.28
2023-06-07T06:51:27.030Z,20.68
2023-06-07T06:53:54.760Z,20.64
2023-06-07T06:56:22.552Z,20.67
2023-06-07T07:10:06.268Z,21.37
2023-06-07T07:12:34.254Z,21.36
2023-06-07T07:15:02.015Z,21.74
2023-06-07T07:17:30.595Z,21.79
2023-06-07T07:19:58.428Z,21.81
2023-06-07T07:22:28.746Z,21.91
2023-06-07T07:24:59.241Z,21.97
2023-06-07T07:27:27.180Z,22.21
2023-06-07T07:29:54.899Z,22.06
2023-06-07T07:32:22.726Z,22.07
2023-06-07T07:34:50.565Z,21.70
2023-06-07T07:37:18.412Z,21.97
2023-06-07T07:39:46.326Z,21.60
2023-06-07T07:42:14.208Z,21.74
2023-06-07T07:44:42.001Z,21.86
2023-06-07T07:47:09.925Z,22.10
2023-06-07T07:49:37.768Z,22.24
2023-06-07T07:52:06.451Z,22.59
2023-06-07T07:54:34.252Z,22.10
2023-06-07T07:57:02.573Z,21.81
2023-06-07T07:59:30.317Z,22.21
2023-06-07T08:01:58.119Z,22.06
2023-06-07T08:04:26.005Z,22.15
2023-06-07T08:06:53.814Z,22.84
2023-06-07T08:09:21.678Z,22.56
2023-06-07T08:11:50.061Z,22.83
2023-06-07T08:14:18.983Z,22.69
2023-06-07T08:16:47.775Z,22.66
2023-06-07T08:19:15.756Z,23.13
2023-06-07T08:21:44.954Z,23.40
2023-06-07T08:24:13.025Z,23.31
2023-06-07T08:26:41.486Z,23.59
2023-06-07T08:29:09.241Z,23.73
2023-06-07T08:31:37.495Z,23.37
2023-06-07T08:34:05.255Z,23.08
2023-06-07T08:36:33.095Z,23.11
2023-06-07T08:39:00.814Z,23.42
2023-06-07T08:41:28.778Z,22.91
2023-06-07T08:43:56.540Z,22.59
2023-06-07T09:06:37.810Z,23.71
2023-06-07T09:09:06.919Z,23.27
2023-06-07T09:11:34.858Z,23.41
2023-06-07T09:14:02.694Z,23.74
2023-06-07T09:16:30.672Z,23.96
2023-06-07T09:18:58.551Z,23.65
2023-06-07T09:21:27.921Z,23.34
2023-06-07T09:23:58.228Z,23.74
2023-06-07T09:26:39.869Z,23.73
2023-06-07T09:29:09.161Z,23.87
2023-06-07T09:31:38.815Z,23.67
2023-06-07T09:34:23.406Z,23.84
2023-06-07T09:36:51.653Z,23.71
2023-06-07T09:39:21.467Z,23.40
2023-06-07T09:41:49.333Z,24.45
2023-06-07T09:44:29.637Z,24.21
2023-06-07T09:46:57.965Z,24.75
2023-06-07T09:49:32.515Z,24.31
2023-06-07T09:52:00.519Z,24.41
2023-06-07T09:54:46.598Z,24.26
2023-06-07T09:57:26.933Z,24.03
2023-06-07T10:00:01.621Z,23.64
2023-06-07T10:02:30.100Z,24.30
2023-06-07T10:04:59.534Z,23.68
2023-06-07T10:07:33.949Z,24.09
2023-06-07T10:10:01.992Z,24.04
2023-06-07T10:12:30.490Z,23.85
2023-06-07T10:15:00.908Z,23.77
2023-06-07T10:17:30.105Z,24.09
2023-06-07T10:20:01.150Z,24.45
2023-06-07T10:22:33.780Z,24.32
2023-06-07T10:25:11.610Z,24.59
2023-06-07T10:28:08.617Z,24.44
2023-06-07T10:30:37.984Z,24.72
2023-06-07T10:33:06.138Z,23.88
2023-06-07T10:35:33.991Z,23.37
2023-06-07T10:38:02.491Z,23.17
2023-06-07T10:40:31.078Z,23.08
2023-06-07T10:42:59.265Z,22.80
2023-06-07T10:45:27.137Z,22.76
2023-06-07T10:47:54.979Z,22.70
2023-06-07T10:50:28.772Z,22.74
2023-06-07T10:53:00.516Z,22.79
2023-06-07T10:55:32.936Z,22.74
2023-06-07T10:58:01.361Z,22.89
2023-06-07T11:00:33.995Z,22.58
2023-06-07T11:03:17.425Z,22.69
2023-06-07T11:05:54.876Z,22.75
2023-06-07T11:08:27.244Z,22.86
2023-06-07T11:11:02.445Z,23.26
2023-06-07T11:13:45.828Z,23.06
2023-06-07T11:16:25.743Z,22.22
2023-06-07T11:18:57.802Z,22.44
2023-06-07T11:21:28.150Z,22.33
2023-06-07T11:24:14.738Z,22.24
2023-06-07T11:26:43.211Z,22.09
2023-06-07T11:29:11.275Z,22.17
2023-06-07T11:31:39.148Z,22.55
2023-06-07T11:34:07.256Z,23.14
2023-06-07T11:36:35.677Z,23.21
2023-06-07T11:39:09.589Z,22.26
2023-06-07T11:41:38.721Z,22.56
2023-06-07T11:44:06.455Z,22.68
2023-06-07T11:46:37.252Z,22.72
2023-06-07T11:49:06.360Z,22.62
2023-06-07T11:51:34.472Z,23.23
2023-06-07T11:54:02.211Z,22.43
2023-06-07T11:56:31.710Z,22.62
2023-06-07T11:59:00.163Z,22.92
2023-06-07T12:01:28.599Z,22.09
2023-06-07T12:03:57.369Z,22.11
2023-06-07T12:06:28.837Z,22.14
2023-06-07T12:08:56.607Z,22.55
2023-06-07T12:11:25.359Z,22.27
2023-06-07T12:14:00.503Z,22.42
2023-06-07T12:16:29.075Z,22.79
2023-06-07T12:18:57.292Z,22.17
2023-06-07T12:21:25.179Z,22.50
2023-06-07T12:23:53.686Z,22.58
2023-06-07T12:26:30.761Z,22.73
2023-06-07T12:29:01.886Z,22.70
2023-06-07T12:31:29.955Z,22.62
2023-06-07T12:34:03.017Z,22.81
2023-06-07T12:36:34.778Z,22.96
2023-06-07T12:39:05.444Z,22.63
2023-06-07T12:41:33.875Z,22.69
2023-06-07T12:44:07.054Z,22.78
2023-06-07T12:46:34.896Z,22.12
2023-06-07T12:49:02.837Z,22.67
2023-06-07T12:51:30.684Z,22.57
2023-06-07T12:53:59.848Z,22.27
2023-06-07T12:56:27.598Z,22.51
2023-06-07T12:58:55.418Z,22.71
2023-06-07T13:01:23.746Z,22.10
2023-06-07T13:03:51.841Z,22.00
2023-06-07T13:06:21.311Z,22.18
2023-06-07T13:08:58.277Z,22.13
2023-06-07T13:11:27.697Z,22.15
2023-06-07T13:13:55.486Z,21.74
2023-06-07T13:16:23.295Z,21.68
2023-06-07T13:18:51.182Z,21.88
2023-06-07T13:21:19.223Z,21.81
2023-06-07T13:23:47.134Z,21.79
2023-06-07T13:26:16.045Z,21.62
2023-06-07T13:28:45.477Z,21.57
2023-06-07T13:31:13.341Z,21.29
2023-06-07T13:33:41.420Z,21.74
2023-06-07T13:36:09.231Z,21.35
2023-06-07T13:38:37.364Z,21.27
2023-06-07T13:41:05.180Z,21.66
2023-06-07T13:43:51.268Z,21.71
2023-06-07T13:46:21.396Z,21.63
2023-06-07T13:48:49.456Z,21.11
2023-06-07T13:51:17.333Z,20.85
2023-06-07T13:53:45.179Z,21.51
2023-06-07T13:56:12.995Z,20.90
2023-06-07T13:58:41.235Z,21.36
2023-06-07T14:01:09.448Z,21.24
2023-06-07T14:03:37.498Z,21.49
2023-06-07T14:06:05.697Z,21.48
2023-06-07T14:08:33.666Z,21.33
2023-06-07T14:11:01.888Z,21.55
2023-06-07T14:13:29.888Z,21.48
2023-06-07T14:15:59.444Z,21.42
2023-06-07T14:18:27.281Z,21.06
2023-06-07T14:20:55.092Z,20.97
2023-06-07T14:23:22.868Z,20.74
2023-06-07T14:25:50.635Z,21.37
2023-06-07T14:28:19.773Z,21.64
2023-06-07T14:30:47.764Z,21.56
2023-06-07T14:33:15.628Z,21.17
2023-06-07T14:35:43.451Z,21.49
2023-06-07T14:38:11.447Z,21.25
2023-06-07T14:40:39.205Z,21.69
2023-06-07T14:43:07.000Z,21.66
2023-06-07T14:45:34.926Z,21.70
2023-06-07T14:48:06.260Z,21.97
2023-06-07T14:50:34.440Z,21.97
2023-06-07T14:53:02.199Z,22.05
2023-06-07T14:55:29.969Z,21.91
2023-06-07T14:58:01.395Z,21.68
2023-06-07T15:00:32.400Z,21.87
2023-06-07T15:03:00.436Z,21.52
2023-06-07T15:05:29.037Z,21.66
2023-06-07T15:07:56.955Z,21.59
2023-06-07T15:10:24.725Z,21.72
2023-06-07T15:12:52.656Z,21.75
2023-06-07T15:15:22.163Z,21.94
2023-06-07T15:17:51.888Z,21.84
2023-06-07T15:20:21.157Z,21.91
2023-06-07T15:22:48.981Z,21.82
2023-06-07T15:25:16.758Z,21.67
2023-06-07T15:27:44.561Z,21.76
2023-06-07T15:30:13.046Z,21.49
2023-06-07T15:32:41.098Z,21.72
2023-06-07T15:35:12.522Z,21.49
2023-06-07T15:37:41.040Z,21.59
2023-06-07T15:40:09.488Z,21.62
2023-06-07T15:42:39.122Z,21.61
2023-06-07T15:45:07.414Z,21.44
2023-06-07T15:47:35.305Z,21.61
2023-06-07T15:50:03.294Z,21.58
2023-06-07T15:52:31.570Z,21.62
2023-06-07T15:54:59.339Z,21.63
2023-06-07T15:57:27.148Z,21.66
2023-06-07T15:59:55.012Z,21.54
2023-06-07T16:02:22.834Z,21.63
2023-06-07T16:04:50.606Z,21.50
2023-06-07T16:07:18.439Z,21.52
2023-06-07T16:09:46.184Z,21.30
2023-06-07T16:12:14.057Z,21.40
2023-06-07T16:14:42.149Z,21.24
2023-06-07T16:17:10.223Z,21.38
2023-06-07T16:19:38.292Z,21.40
2023-06-07T16:22:06.054Z,21.36
2023-06-07T16:24:33.853Z,21.46
2023-06-07T16:27:01.600Z,21.07
2023-06-07T16:29:29.528Z,21.34
2023-06-07T16:31:57.326Z,21.36
2023-06-07T16:34:25.860Z,21.27
2023-06-07T16:36:53.772Z,21.23
2023-06-07T16:39:21.548Z,21.27
2023-06-07T16:41:49.294Z,21.25
2023-06-07T16:44:18.889Z,21.30
2023-06-07T16:46:47.178Z,21.30
2023-06-07T16:49:16.112Z,21.18
2023-06-07T16:51:43.900Z,21.32
2023-06-07T16:54:12.308Z,21.22
2023-06-07T16:56:40.066Z,21.19
2023-06-07T16:59:08.035Z,21.27
2023-06-07T17:01:36.724Z,21.25
2023-06-07T17:04:05.033Z,21.11
2023-06-07T17:06:33.154Z,21.23
2023-06-07T17:09:00.955Z,21.18
2023-06-07T17:11:28.714Z,21.19
2023-06-07T17:13:56.632Z,21.11
2023-06-07T17:16:24.384Z,21.23
2023-06-07T17:18:52.260Z,21.14
2023-06-07T17:21:20.166Z,21.13
2023-06-07T17:23:48.149Z,20.96
2023-06-07T17:26:15.978Z,21.01
2023-06-07T17:28:43.756Z,21.01
2023-06-07T17:31:11.583Z,21.03
2023-06-07T17:33:41.803Z,21.07
2023-06-07T17:36:10.128Z,21.04
2023-06-07T17:38:38.030Z,21.12
2023-06-07T17:41:05.845Z,21.03
2023-06-07T17:43:33.611Z,20.95
2023-06-07T17:46:01.384Z,21.01
2023-06-07T17:48:29.304Z,21.01
2023-06-07T17:50:57.048Z,20.90
2023-06-07T17:53:24.920Z,20.89
2023-06-07T17:55:52.692Z,20.95
2023-06-07T17:58:20.698Z,20.89
2023-06-07T18:00:48.504Z,20.82
2023-06-07T18:03:19.543Z,20.74
2023-06-07T18:05:47.717Z,20.75
2023-06-07T18:08:15.838Z,20.77
2023-06-07T18:10:43.629Z,20.83
2023-06-07T18:13:11.508Z,20.60
2023-06-07T18:15:39.309Z,20.60
2023-06-07T18:18:07.143Z,20.58
2023-06-07T18:20:35.577Z,20.47
2023-06-07T18:23:04.062Z,20.53
2023-06-07T18:25:31.878Z,20.58
2023-06-07T18:27:59.744Z,20.56
2023-06-07T18:30:29.409Z,20.52
2023-06-07T18:32:57.525Z,20.51
2023-06-07T18:35:25.617Z,20.55
2023-06-07T18:37:53.457Z,20.59
2023-06-07T18:40:21.227Z,20.62
2023-06-07T18:42:49.008Z,20.66
2023-06-07T18:45:16.789Z,20.58
2023-06-07T18:47:44.688Z,20.49
2023-06-07T18:50:12.742Z,20.36
2023-06-07T18:52:40.569Z,20.26
2023-06-07T18:55:08.851Z,20.35
2023-06-07T18:57:37.202Z,20.42
2023-06-07T19:00:05.632Z,20.37
2023-06-07T19:02:33.730Z,20.42
2023-06-07T19:05:01.730Z,20.33
2023-06-07T19:07:29.604Z,20.21
2023-06-07T19:09:57.498Z,20.24
2023-06-07T19:12:28.087Z,20.23
2023-06-07T19:14:56.910Z,20.25
2023-06-07T19:17:24.720Z,20.22
2023-06-07T19:19:52.772Z,20.25
2023-06-07T19:22:20.589Z,20.11
2023-06-07T19:24:48.388Z,20.07
2023-06-07T19:27:16.842Z,20.09
2023-06-07T19:29:44.678Z,20.17
2023-06-07T19:32:12.545Z,20.17
2023-06-07T19:34:40.630Z,20.20
2023-06-07T19:37:08.593Z,20.02
2023-06-07T19:39:36.564Z,20.04
2023-06-07T19:42:05.069Z,20.00
2023-06-07T19:44:32.911Z,19.98
2023-06-07T19:47:03.328Z,20.02
2023-06-07T19:49:31.396Z,19.98
2023-06-07T19:52:00.645Z,20.03
2023-06-07T19:54:28.514Z,20.03
2023-06-07T19:56:56.282Z,19.80
2023-06-07T19:59:24.112Z,19.93
2023-06-07T20:01:52.229Z,19.89
2023-06-07T20:04:20.066Z,19.70
2023-06-07T20:06:47.813Z,19.73
2023-06-07T20:09:15.764Z,19.68
2023-06-07T20:11:43.525Z,19.64
2023-06-07T20:14:11.660Z,19.58
2023-06-07T20:16:39.528Z,19.74
2023-06-07T20:19:07.561Z,19.77
2023-06-07T20:21:36.688Z,19.79
2023-06-07T20:24:04.780Z,19.68
2023-06-07T20:26:32.648Z,19.68
2023-06-07T20:29:02.304Z,19.63
2023-06-07T20:31:30.111Z,19.56
2023-06-07T20:33:58.675Z,19.58
2023-06-07T20:36:27.299Z,19.65
2023-06-07T20:38:55.207Z,19.60
2023-06-07T20:41:23.104Z,19.63
2023-06-07T20:43:50.997Z,19.60
2023-06-07T20:46:18.834Z,19.67
2023-06-07T20:48:46.599Z,19.69
2023-06-07T20:51:14.809Z,19.77
2023-06-07T20:53:42.781Z,19.67
2023-06-07T20:56:10.553Z,19.68
2023-06-07T20:58:38.302Z,19.66
2023-06-07T21:01:06.437Z,19.61
2023-06-07T21:03:34.502Z,19.45
2023-06-07T21:06:02.371Z,19.38
2023-06-07T21:08:30.180Z,19.47
2023-06-07T21:10:57.953Z,19.48
2023-06-07T21:13:25.806Z,19.44
2023-06-07T21:15:53.583Z,19.47
2023-06-07T21:18:21.440Z,19.37
2023-06-07T21:20:49.173Z,19.34
2023-06-07T21:23:17.041Z,19.47
2023-06-07T21:25:44.843Z,19.48
2023-06-07T21:28:12.555Z,19.40
2023-06-07T21:30:40.723Z,19.40
2023-06-07T21:33:08.516Z,19.36
2023-06-07T21:35:36.418Z,19.39
2023-06-07T21:38:04.241Z,19.36
2023-06-07T21:40:32.352Z,19.32
2023-06-07T21:43:00.192Z,19.37
2023-06-07T21:45:28.047Z,19.41
2023-06-07T21:47:55.903Z,19.34
2023-06-07T21:50:23.780Z,19.41
2023-06-07T21:52:52.091Z,19.30
2023-06-07T21:55:19.904Z,19.39
2023-06-07T21:57:47.648Z,19.16
2023-06-07T22:00:16.310Z,18.87
2023-06-07T22:02:44.161Z,18.87
2023-06-07T22:05:12.047Z,18.85
2023-06-07T22:07:40.093Z,18.92
2023-06-07T22:10:08.440Z,19.06
2023-06-07T22:12:38.081Z,19.07
2023-06-07T22:15:06.643Z,19.00
2023-06-07T22:17:34.868Z,19.02
2023-06-07T22:20:06.352Z,18.84
2023-06-07T22:22:35.121Z,18.89
2023-06-07T22:25:02.937Z,18.94
2023-06-07T22:27:31.514Z,18.60
2023-06-07T22:29:59.736Z,18.47
2023-06-07T22:32:30.938Z,18.39
2023-06-07T22:35:05.217Z,18.24
2023-06-07T22:37:34.013Z,18.30
2023-06-07T22:40:05.761Z,18.54
2023-06-07T22:42:34.059Z,18.41
2023-06-07T22:45:02.773Z,18.20
2023-06-07T22:47:31.170Z,18.09
2023-06-07T22:50:03.671Z,17.99
2023-06-07T22:52:35.821Z,17.92
2023-06-07T22:55:03.950Z,18.08
2023-06-07T22:57:32.281Z,18.25
2023-06-07T23:00:00.119Z,18.21
2023-06-07T23:02:29.860Z,18.11
2023-06-07T23:04:58.343Z,17.91
2023-06-07T23:07:26.072Z,18.02
2023-06-07T23:09:53.862Z,18.15
2023-06-07T23:12:21.621Z,18.02
2023-06-07T23:14:49.866Z,17.99
2023-06-07T23:17:17.748Z,18.09
2023-06-07T23:19:46.679Z,18.19
2023-06-07T23:22:18.084Z,18.05
2023-06-07T23:24:49.061Z,17.46
2023-06-07T23:27:17.006Z,17.83
2023-06-07T23:29:45.177Z,17.80
2023-06-07T23:32:13.201Z,17.90
2023-06-07T23:34:41.332Z,17.78
2023-06-07T23:37:09.162Z,17.75
2023-06-07T23:39:36.976Z,17.75
2023-06-07T23:42:05.169Z,17.61
2023-06-07T23:44:33.401Z,17.81
2023-06-07T23:47:01.190Z,18.00
2023-06-07T23:49:35.068Z,17.98
2023-06-07T23:52:03.165Z,17.84
2023-06-07T23:54:30.930Z,17.72
2023-06-07T23:56:58.726Z,17.81
2023-06-07T23:59:26.750Z,17.81
